sensor_id;sensor_type;location;lat;lon;timestamp;P1;durP1;ratioP1;P2;durP2;ratioP2
64917;SDS011;52176;44.858;38.372;2022-08-19T00:49:35;16.27;;;11.15;;
64917;SDS011;52176;44.858;38.372;2022-08-19T00:52:07;12.90;;;10.65;;
64917;SDS011;52176;44.858;38.372;2022-08-19T00:54:38;15.50;;;11.52;;
64917;SDS011;52176;44.858;38.372;2022-08-19T00:57:05;17.88;;;11.27;;
64917;SDS011;52176;44.858;38.372;2022-08-19T00:59:34;17.55;;;10.25;;
64917;SDS011;52176;44.858;38.372;2022-08-19T01:02:03;13.98;;;10.10;;
64917;SDS011;52176;44.858;38.372;2022-08-19T01:04:30;17.92;;;10.25;;
64917;SDS011;52176;44.858;38.372;2022-08-19T01:06:56;14.82;;;10.55;;
64917;SDS011;52176;44.858;38.372;2022-08-19T01:09:23;13.88;;;10.55;;
64917;SDS011;52176;44.858;38.372;2022-08-19T01:11:49;14.63;;;10.57;;
64917;SDS011;52176;44.858;38.372;2022-08-19T01:14:16;16.95;;;11.38;;
64917;SDS011;52176;44.858;38.372;2022-08-19T01:16:44;17.25;;;10.75;;
64917;SDS011;52176;44.858;38.372;2022-08-19T01:19:22;16.98;;;11.18;;
64917;SDS011;52176;44.858;38.372;2022-08-19T01:22:01;14.00;;;10.93;;
64917;SDS011;52176;44.858;38.372;2022-08-19T01:24:31;13.68;;;11.05;;
64917;SDS011;52176;44.858;38.372;2022-08-19T01:26:57;20.52;;;11.02;;
64917;SDS011;52176;44.858;38.372;2022-08-19T01:29:23;16.08;;;11.20;;
64917;SDS011;52176;44.858;38.372;2022-08-19T01:31:50;14.57;;;10.68;;
64917;SDS011;52176;44.858;38.372;2022-08-19T01:34:18;16.77;;;10.65;;
64917;SDS011;52176;44.858;38.372;2022-08-19T01:36:45;15.98;;;10.85;;
64917;SDS011;52176;44.858;38.372;2022-08-19T01:39:14;17.67;;;10.27;;
64917;SDS011;52176;44.858;38.372;2022-08-19T01:41:48;19.33;;;11.40;;
64917;SDS011;52176;44.858;38.372;2022-08-19T01:44:15;13.50;;;11.10;;
64917;SDS011;52176;44.858;38.372;2022-08-19T01:46:42;13.77;;;11.00;;
64917;SDS011;52176;44.858;38.372;2022-08-19T01:49:09;13.65;;;10.32;;
64917;SDS011;52176;44.858;38.372;2022-08-19T01:51:35;14.68;;;11.00;;
64917;SDS011;52176;44.858;38.372;2022-08-19T01:54:02;13.70;;;10.25;;
64917;SDS011;52176;44.858;38.372;2022-08-19T01:56:28;18.35;;;10.73;;
64917;SDS011;52176;44.858;38.372;2022-08-19T01:58:59;14.77;;;11.05;;
64917;SDS011;52176;44.858;38.372;2022-08-19T02:01:28;17.27;;;10.38;;
64917;SDS011;52176;44.858;38.372;2022-08-19T02:04:00;17.95;;;10.57;;
64917;SDS011;52176;44.858;38.372;2022-08-19T02:06:27;19.65;;;10.48;;
64917;SDS011;52176;44.858;38.372;2022-08-19T02:08:54;17.58;;;10.20;;
64917;SDS011;52176;44.858;38.372;2022-08-19T02:11:28;13.18;;;10.57;;
64917;SDS011;52176;44.858;38.372;2022-08-19T02:13:57;17.95;;;10.70;;
64917;SDS011;52176;44.858;38.372;2022-08-19T02:16:23;16.88;;;10.00;;
64917;SDS011;52176;44.858;38.372;2022-08-19T02:18:49;17.02;;;10.40;;
64917;SDS011;52176;44.858;38.372;2022-08-19T02:21:17;16.30;;;11.13;;
64917;SDS011;52176;44.858;38.372;2022-08-19T02:23:44;18.85;;;10.30;;
64917;SDS011;52176;44.858;38.372;2022-08-19T02:26:10;16.38;;;10.32;;
64917;SDS011;52176;44.858;38.372;2022-08-19T02:28:38;14.02;;;10.52;;
64917;SDS011;52176;44.858;38.372;2022-08-19T02:31:11;17.75;;;10.75;;
64917;SDS011;52176;44.858;38.372;2022-08-19T02:33:40;17.17;;;10.83;;
64917;SDS011;52176;44.858;38.372;2022-08-19T02:36:07;22.52;;;10.27;;
64917;SDS011;52176;44.858;38.372;2022-08-19T02:38:34;13.80;;;10.95;;
64917;SDS011;52176;44.858;38.372;2022-08-19T02:41:06;13.52;;;10.52;;
64917;SDS011;52176;44.858;38.372;2022-08-19T02:43:37;19.40;;;11.23;;
64917;SDS011;52176;44.858;38.372;2022-08-19T02:46:17;16.60;;;10.90;;
64917;SDS011;52176;44.858;38.372;2022-08-19T02:48:50;24.85;;;10.93;;
64917;SDS011;52176;44.858;38.372;2022-08-19T02:51:24;19.88;;;10.88;;
64917;SDS011;52176;44.858;38.372;2022-08-19T02:53:52;13.45;;;11.38;;
64917;SDS011;52176;44.858;38.372;2022-08-19T02:56:19;14.05;;;11.48;;
64917;SDS011;52176;44.858;38.372;2022-08-19T02:58:46;16.48;;;10.70;;
64917;SDS011;52176;44.858;38.372;2022-08-19T03:03:54;16.75;;;10.68;;
64917;SDS011;52176;44.858;38.372;2022-08-19T03:06:24;14.63;;;11.75;;
64917;SDS011;52176;44.858;38.372;2022-08-19T03:08:51;13.63;;;11.82;;
64917;SDS011;52176;44.858;38.372;2022-08-19T03:11:23;13.48;;;10.93;;
64917;SDS011;52176;44.858;38.372;2022-08-19T03:13:49;13.90;;;11.02;;
64917;SDS011;52176;44.858;38.372;2022-08-19T03:16:17;19.52;;;10.65;;
64917;SDS011;52176;44.858;38.372;2022-08-19T03:18:44;14.60;;;10.85;;
64917;SDS011;52176;44.858;38.372;2022-08-19T03:21:15;14.35;;;10.98;;
64917;SDS011;52176;44.858;38.372;2022-08-19T03:23:42;15.05;;;11.07;;
64917;SDS011;52176;44.858;38.372;2022-08-19T03:26:09;14.50;;;10.60;;
64917;SDS011;52176;44.858;38.372;2022-08-19T03:28:35;12.55;;;10.48;;
64917;SDS011;52176;44.858;38.372;2022-08-19T03:31:06;17.65;;;11.18;;
64917;SDS011;52176;44.858;38.372;2022-08-19T03:33:37;16.45;;;11.27;;
64917;SDS011;52176;44.858;38.372;2022-08-19T03:36:11;13.27;;;10.68;;
64917;SDS011;52176;44.858;38.372;2022-08-19T05:37:07;14.73;;;8.77;;
64917;SDS011;52176;44.858;38.372;2022-08-19T05:39:34;18.55;;;8.43;;
64917;SDS011;52176;44.858;38.372;2022-08-19T05:42:03;15.75;;;7.93;;
64917;SDS011;52176;44.858;38.372;2022-08-19T05:54:18;12.45;;;6.85;;
64917;SDS011;52176;44.858;38.372;2022-08-19T05:56:45;10.43;;;5.85;;
64917;SDS011;52176;44.858;38.372;2022-08-19T06:18:53;8.70;;;6.32;;
64917;SDS011;52176;44.858;38.372;2022-08-19T06:21:23;13.23;;;6.80;;
64917;SDS011;52176;44.858;38.372;2022-08-19T06:26:17;12.20;;;6.78;;
64917;SDS011;52176;44.858;38.372;2022-08-19T06:28:45;10.43;;;5.85;;
64917;SDS011;52176;44.858;38.372;2022-08-19T06:33:42;11.40;;;6.00;;
64917;SDS011;52176;44.858;38.372;2022-08-19T06:36:22;20.80;;;6.10;;
64917;SDS011;52176;44.858;38.372;2022-08-19T06:38:55;8.75;;;6.22;;
64917;SDS011;52176;44.858;38.372;2022-08-19T06:41:25;9.27;;;6.13;;
64917;SDS011;52176;44.858;38.372;2022-08-19T06:43:51;10.38;;;5.88;;
64917;SDS011;52176;44.858;38.372;2022-08-19T06:46:18;10.88;;;6.18;;
64917;SDS011;52176;44.858;38.372;2022-08-19T06:48:45;13.75;;;6.35;;
64917;SDS011;52176;44.858;38.372;2022-08-19T06:51:14;11.45;;;6.10;;
64917;SDS011;52176;44.858;38.372;2022-08-19T06:56:13;8.18;;;5.90;;
64917;SDS011;52176;44.858;38.372;2022-08-19T06:58:40;9.50;;;5.75;;
64917;SDS011;52176;44.858;38.372;2022-08-19T07:01:07;15.77;;;5.82;;
64917;SDS011;52176;44.858;38.372;2022-08-19T07:03:34;13.20;;;5.50;;
64917;SDS011;52176;44.858;38.372;2022-08-19T07:50:12;6.82;;;5.65;;
64917;SDS011;52176;44.858;38.372;2022-08-19T08:32:54;14.02;;;6.55;;
64917;SDS011;52176;44.858;38.372;2022-08-19T08:55:57;14.02;;;7.35;;
64917;SDS011;52176;44.858;38.372;2022-08-19T08:58:28;10.18;;;6.63;;
64917;SDS011;52176;44.858;38.372;2022-08-19T09:00:58;15.50;;;6.85;;
64917;SDS011;52176;44.858;38.372;2022-08-19T09:03:25;8.43;;;6.43;;
64917;SDS011;52176;44.858;38.372;2022-08-19T09:06:03;12.85;;;6.40;;
64917;SDS011;52176;44.858;38.372;2022-08-19T09:11:03;22.08;;;7.00;;
64917;SDS011;52176;44.858;38.372;2022-08-19T11:16:46;15.10;;;6.20;;
64917;SDS011;52176;44.858;38.372;2022-08-19T11:19:13;12.27;;;6.45;;
64917;SDS011;52176;44.858;38.372;2022-08-19T11:21:45;11.20;;;5.97;;
64917;SDS011;52176;44.858;38.372;2022-08-19T11:24:14;12.65;;;5.93;;
64917;SDS011;52176;44.858;38.372;2022-08-19T11:26:42;11.98;;;6.03;;
64917;SDS011;52176;44.858;38.372;2022-08-19T11:29:10;10.68;;;5.90;;
64917;SDS011;52176;44.858;38.372;2022-08-19T11:31:38;14.65;;;5.90;;
64917;SDS011;52176;44.858;38.372;2022-08-19T11:34:10;12.07;;;5.93;;
64917;SDS011;52176;44.858;38.372;2022-08-19T11:36:41;12.70;;;6.07;;
64917;SDS011;52176;44.858;38.372;2022-08-19T11:39:09;19.83;;;6.20;;
64917;SDS011;52176;44.858;38.372;2022-08-19T11:41:36;13.20;;;5.60;;
64917;SDS011;52176;44.858;38.372;2022-08-19T11:44:03;14.35;;;5.80;;
64917;SDS011;52176;44.858;38.372;2022-08-19T11:46:30;18.83;;;5.15;;
64917;SDS011;52176;44.858;38.372;2022-08-19T11:48:57;14.63;;;5.22;;
64917;SDS011;52176;44.858;38.372;2022-08-19T11:51:26;40.65;;;6.60;;
64917;SDS011;52176;44.858;38.372;2022-08-19T11:53:53;17.67;;;5.55;;
64917;SDS011;52176;44.858;38.372;2022-08-19T11:56:21;45.30;;;9.07;;
64917;SDS011;52176;44.858;38.372;2022-08-19T11:58:49;15.00;;;5.13;;
64917;SDS011;52176;44.858;38.372;2022-08-19T12:01:18;11.18;;;4.57;;
64917;SDS011;52176;44.858;38.372;2022-08-19T12:03:47;19.50;;;5.10;;
64917;SDS011;52176;44.858;38.372;2022-08-19T12:06:16;13.52;;;4.78;;
64917;SDS011;52176;44.858;38.372;2022-08-19T12:43:11;18.45;;;5.50;;
64917;SDS011;52176;44.858;38.372;2022-08-19T12:45:37;9.30;;;4.90;;
64917;SDS011;52176;44.858;38.372;2022-08-19T12:48:03;11.35;;;4.90;;
64917;SDS011;52176;44.858;38.372;2022-08-19T12:50:30;12.25;;;5.10;;
64917;SDS011;52176;44.858;38.372;2022-08-19T12:52:56;11.95;;;5.30;;
64917;SDS011;52176;44.858;38.372;2022-08-19T12:55:23;12.18;;;5.22;;
64917;SDS011;52176;44.858;38.372;2022-08-19T12:57:50;12.38;;;4.60;;
64917;SDS011;52176;44.858;38.372;2022-08-19T13:00:17;11.75;;;5.25;;
64917;SDS011;52176;44.858;38.372;2022-08-19T13:02:47;15.18;;;5.10;;
64917;SDS011;52176;44.858;38.372;2022-08-19T13:05:26;13.10;;;4.63;;
64917;SDS011;52176;44.858;38.372;2022-08-19T13:07:56;12.68;;;4.88;;
64917;SDS011;52176;44.858;38.372;2022-08-19T13:10:34;7.72;;;4.47;;
64917;SDS011;52176;44.858;38.372;2022-08-19T13:13:02;10.15;;;5.07;;
64917;SDS011;52176;44.858;38.372;2022-08-19T13:15:32;15.43;;;5.00;;
64917;SDS011;52176;44.858;38.372;2022-08-19T13:17:59;10.88;;;5.32;;
64917;SDS011;52176;44.858;38.372;2022-08-19T13:20:26;8.95;;;5.38;;
64917;SDS011;52176;44.858;38.372;2022-08-19T13:22:52;9.25;;;4.80;;
64917;SDS011;52176;44.858;38.372;2022-08-19T13:25:19;11.73;;;5.50;;
64917;SDS011;52176;44.858;38.372;2022-08-19T13:27:46;12.93;;;4.75;;
64917;SDS011;52176;44.858;38.372;2022-08-19T13:30:14;12.00;;;4.70;;
64917;SDS011;52176;44.858;38.372;2022-08-19T13:33:00;8.48;;;4.55;;
64917;SDS011;52176;44.858;38.372;2022-08-19T13:38:10;24.95;;;7.13;;
64917;SDS011;52176;44.858;38.372;2022-08-19T13:40:37;10.57;;;4.32;;
64917;SDS011;52176;44.858;38.372;2022-08-19T13:43:04;12.18;;;4.40;;
64917;SDS011;52176;44.858;38.372;2022-08-19T13:45:31;9.77;;;4.90;;
64917;SDS011;52176;44.858;38.372;2022-08-19T13:57:45;16.50;;;7.10;;
64917;SDS011;52176;44.858;38.372;2022-08-19T14:00:12;27.45;;;7.93;;
64917;SDS011;52176;44.858;38.372;2022-08-19T14:02:44;30.85;;;8.35;;
64917;SDS011;52176;44.858;38.372;2022-08-19T14:05:12;24.70;;;8.23;;
64917;SDS011;52176;44.858;38.372;2022-08-19T14:49:26;15.75;;;6.70;;
64917;SDS011;52176;44.858;38.372;2022-08-19T15:04:01;10.68;;;4.90;;
64917;SDS011;52176;44.858;38.372;2022-08-19T15:13:48;17.15;;;6.00;;
64917;SDS011;52176;44.858;38.372;2022-08-19T15:16:15;12.00;;;5.47;;
64917;SDS011;52176;44.858;38.372;2022-08-19T15:18:42;13.63;;;6.10;;
64917;SDS011;52176;44.858;38.372;2022-08-19T15:21:13;14.05;;;6.78;;
64917;SDS011;52176;44.858;38.372;2022-08-19T15:26:14;13.82;;;5.95;;
64917;SDS011;52176;44.858;38.372;2022-08-19T15:28:40;12.07;;;6.20;;
64917;SDS011;52176;44.858;38.372;2022-08-19T15:33:34;11.30;;;5.88;;
